createdAt,value
2019-04-28T00:02:01.357Z,10.60
2019-04-28T00:07:05.221Z,10.60
2019-04-28T00:12:08.877Z,10.60
2019-04-28T00:17:12.612Z,10.60
2019-04-28T00:22:22.306Z,10.80
2019-04-28T00:27:25.974Z,10.70
2019-04-28T00:32:30.462Z,10.80
2019-04-28T00:37:37.367Z,10.70
2019-04-28T00:42:41.466Z,10.60
2019-04-28T00:47:45.291Z,10.80
2019-04-28T00:52:48.949Z,10.70
2019-04-28T00:57:52.929Z,10.60
2019-04-28T01:02:56.851Z,10.70
2019-04-28T01:08:01.126Z,10.70
2019-04-28T01:13:05.189Z,10.70
2019-04-28T01:18:18.256Z,10.70
2019-04-28T01:23:22.175Z,10.70
2019-04-28T01:28:25.835Z,10.60
2019-04-28T01:34:04.166Z,10.50
2019-04-28T01:39:09.837Z,10.40
2019-04-28T01:44:13.302Z,10.30
2019-04-28T01:49:16.954Z,10.20
2019-04-28T01:54:20.619Z,10.30
2019-04-28T01:59:24.593Z,10.40
2019-04-28T02:04:30.061Z,10.40
2019-04-28T02:09:33.627Z,10.40
2019-04-28T02:14:37.376Z,10.50
2019-04-28T02:19:41.222Z,10.50
2019-04-28T02:24:44.986Z,10.20
2019-04-28T02:29:49.927Z,10.20
2019-04-28T02:34:53.739Z,10.10
2019-04-28T02:39:57.518Z,10.00
2019-04-28T02:45:01.588Z,9.80
2019-04-28T02:50:12.106Z,9.60
2019-04-28T02:55:15.763Z,9.80
2019-04-28T03:00:21.630Z,9.80
2019-04-28T03:05:25.111Z,9.60
2019-04-28T03:10:31.005Z,9.50
2019-04-28T03:15:34.462Z,9.50
2019-04-28T03:20:38.134Z,9.50
2019-04-28T03:25:55.126Z,9.40
2019-04-28T03:31:48.477Z,9.30
2019-04-28T03:36:25.348Z,9.30
2019-04-28T03:41:31.077Z,9.30
2019-04-28T03:46:37.746Z,9.30
2019-04-28T03:51:41.449Z,9.30
2019-04-28T03:56:45.109Z,9.40
2019-04-28T04:01:58.589Z,9.40
2019-04-28T04:06:54.422Z,9.30
2019-04-28T04:12:15.920Z,9.30
2019-04-28T04:17:27.477Z,9.60
2019-04-28T04:22:31.641Z,9.70
2019-04-28T04:27:40.598Z,9.80
2019-04-28T04:32:44.812Z,9.90
2019-04-28T04:37:50.385Z,10.00
2019-04-28T04:42:54.257Z,9.90
2019-04-28T04:48:00.307Z,9.80
2019-04-28T04:53:03.303Z,9.70
2019-04-28T04:58:06.977Z,9.80
2019-04-28T05:03:15.697Z,10.10
2019-04-28T05:08:20.287Z,10.20
2019-04-28T05:13:24.115Z,10.50
2019-04-28T05:18:29.613Z,10.60
2019-04-28T05:23:55.412Z,10.80
2019-04-28T05:28:59.544Z,10.80
2019-04-28T05:34:04.127Z,10.90
2019-04-28T05:39:10.444Z,11.00
2019-04-28T05:44:14.267Z,11.10
2019-04-28T05:49:34.935Z,10.90
2019-04-28T05:54:45.411Z,11.00
2019-04-28T05:59:54.093Z,10.70
2019-04-28T06:04:59.810Z,10.80
2019-04-28T06:10:03.586Z,10.80
2019-04-28T06:15:07.293Z,11.00
2019-04-28T06:20:11.803Z,10.90
2019-04-28T06:25:15.589Z,10.90
2019-04-28T06:30:21.382Z,10.90
2019-04-28T06:35:25.667Z,11.00
2019-04-28T06:40:29.336Z,11.00
2019-04-28T06:45:34.004Z,11.00
2019-04-28T06:50:37.722Z,10.90
2019-04-28T06:55:45.467Z,10.90
2019-04-28T07:00:52.439Z,10.80
2019-04-28T07:05:56.217Z,10.90
2019-04-28T07:11:00.417Z,11.00
2019-04-28T07:16:04.165Z,11.00
2019-04-28T07:21:14.081Z,10.90
2019-04-28T07:26:17.766Z,11.00
2019-04-28T07:31:23.216Z,11.00
2019-04-28T07:36:26.897Z,10.90
2019-04-28T07:41:30.565Z,11.00
2019-04-28T07:46:34.312Z,11.40
2019-04-28T07:51:50.159Z,11.50
2019-04-28T07:56:54.134Z,11.80
2019-04-28T08:01:57.825Z,12.10
2019-04-28T08:07:01.575Z,12.40
2019-04-28T08:12:05.511Z,12.30
2019-04-28T08:17:09.279Z,12.50
2019-04-28T08:22:12.953Z,12.90
2019-04-28T08:27:16.702Z,13.00
2019-04-28T08:32:26.537Z,12.80
2019-04-28T08:37:30.233Z,12.60
2019-04-28T08:42:33.887Z,13.00
2019-04-28T08:47:37.798Z,13.30
2019-04-28T08:52:41.469Z,13.50
2019-04-28T08:57:45.488Z,13.90
2019-04-28T09:02:49.207Z,14.20
2019-04-28T09:07:52.905Z,14.60
2019-04-28T09:12:56.609Z,14.80
2019-04-28T09:18:00.531Z,14.90
2019-04-28T09:23:04.269Z,15.20
2019-04-28T09:28:08.193Z,14.30
2019-04-28T09:33:11.891Z,14.10
2019-04-28T09:38:15.562Z,14.30
2019-04-28T09:43:26.541Z,14.00
2019-04-28T09:48:30.242Z,13.40
2019-04-28T09:53:34.056Z,13.80
2019-04-28T09:58:37.792Z,15.90
2019-04-28T10:03:41.481Z,16.40
2019-04-28T10:08:45.260Z,16.50
2019-04-28T10:13:49.202Z,20.80
2019-04-28T10:18:52.953Z,23.00
2019-04-28T10:23:56.655Z,22.00
2019-04-28T10:29:00.358Z,25.20
2019-04-28T10:34:05.232Z,23.30
2019-04-28T10:39:23.746Z,22.50
2019-04-28T10:44:28.946Z,23.60
2019-04-28T10:49:32.696Z,22.40
2019-04-28T10:54:36.422Z,19.70
2019-04-28T10:59:40.087Z,17.90
2019-04-28T11:05:08.695Z,16.80
2019-04-28T11:10:16.454Z,16.60
2019-04-28T11:15:24.002Z,18.20
2019-04-28T11:20:27.925Z,21.70
2019-04-28T11:25:32.016Z,21.30
2019-04-28T11:30:35.833Z,19.40
2019-04-28T11:35:39.813Z,17.60
2019-04-28T11:40:43.459Z,16.70
2019-04-28T11:45:47.194Z,15.40
2019-04-28T11:50:51.066Z,14.60
2019-04-28T11:55:54.762Z,14.10
2019-04-28T12:00:58.630Z,13.80
2019-04-28T12:06:02.817Z,13.80
2019-04-28T12:11:13.867Z,14.00
2019-04-28T12:16:45.739Z,14.20
2019-04-28T12:21:49.421Z,14.40
2019-04-28T12:26:53.080Z,14.60
2019-04-28T12:31:56.981Z,15.00
2019-04-28T12:37:01.115Z,15.60
2019-04-28T12:42:04.943Z,15.80
2019-04-28T12:47:08.878Z,16.80
2019-04-28T12:52:14.193Z,16.90
2019-04-28T12:57:18.093Z,16.90
2019-04-28T13:02:50.118Z,17.10
2019-04-28T13:07:54.040Z,16.80
2019-04-28T13:12:57.964Z,15.70
2019-04-28T13:18:01.655Z,15.40
2019-04-28T13:23:05.347Z,15.50
2019-04-28T13:28:09.094Z,15.30
2019-04-28T13:33:13.098Z,15.60
2019-04-28T13:38:17.022Z,16.10
2019-04-28T13:43:20.690Z,17.30
2019-04-28T13:48:24.399Z,18.50
2019-04-28T13:53:28.082Z,19.50
2019-04-28T13:58:34.310Z,19.90
2019-04-28T14:04:06.174Z,21.70
2019-04-28T14:09:17.463Z,22.60
2019-04-28T14:14:21.394Z,22.30
2019-04-28T14:19:25.467Z,20.70
2019-04-28T14:24:29.310Z,19.10
2019-04-28T14:29:32.985Z,18.20
2019-04-28T14:34:36.662Z,18.40
2019-04-28T14:39:40.558Z,18.60
2019-04-28T14:44:44.425Z,20.00
2019-04-28T14:49:48.155Z,20.60
2019-04-28T14:54:51.819Z,19.10
2019-04-28T14:59:57.979Z,18.60
2019-04-28T15:05:18.569Z,18.20
2019-04-28T15:10:43.320Z,18.50
2019-04-28T15:15:47.369Z,19.20
2019-04-28T15:20:51.084Z,18.70
2019-04-28T15:25:54.768Z,19.00
2019-04-28T15:30:58.514Z,19.30
2019-04-28T15:36:02.202Z,19.50
2019-04-28T15:41:05.933Z,19.80
2019-04-28T15:46:09.911Z,19.30
2019-04-28T15:51:13.665Z,19.30
2019-04-28T15:56:51.574Z,19.40
2019-04-28T16:01:55.347Z,18.90
2019-04-28T16:06:59.090Z,18.30
2019-04-28T16:12:03.007Z,17.90
2019-04-28T16:17:06.973Z,17.50
2019-04-28T16:22:11.493Z,18.20
2019-04-28T16:27:15.169Z,18.60
2019-04-28T16:32:18.846Z,18.90
2019-04-28T16:37:23.041Z,18.90
2019-04-28T16:42:29.003Z,19.30
2019-04-28T16:47:35.183Z,19.60
2019-04-28T16:52:39.231Z,19.00
2019-04-28T16:57:50.700Z,18.40
2019-04-28T17:02:57.643Z,18.00
2019-04-28T17:08:01.490Z,17.50
2019-04-28T17:13:05.402Z,17.40
2019-04-28T17:18:09.326Z,17.30
2019-04-28T17:23:13.045Z,16.90
2019-04-28T17:28:17.125Z,16.60
2019-04-28T17:33:20.878Z,16.00
2019-04-28T17:38:24.853Z,15.70
2019-04-28T17:43:28.763Z,15.40
2019-04-28T17:48:35.933Z,15.10
2019-04-28T17:53:39.922Z,14.80
2019-04-28T17:58:43.633Z,14.40
2019-04-28T18:04:17.611Z,14.20
2019-04-28T18:09:21.595Z,14.00
2019-04-28T18:14:25.600Z,13.70
2019-04-28T18:19:29.693Z,13.40
2019-04-28T18:24:33.682Z,13.20
2019-04-28T18:29:55.376Z,13.10
2019-04-28T18:35:07.859Z,12.90
2019-04-28T18:40:20.302Z,12.90
2019-04-28T18:45:25.273Z,12.60
2019-04-28T18:50:30.077Z,12.50
2019-04-28T18:55:33.890Z,12.50
2019-04-28T19:00:40.245Z,12.40
2019-04-28T19:05:45.913Z,12.20
2019-04-28T19:11:07.398Z,12.10
2019-04-28T19:16:24.474Z,11.90
2019-04-28T19:21:45.185Z,11.90
2019-04-28T19:26:48.907Z,11.70
2019-04-28T19:31:52.885Z,11.40
2019-04-28T19:36:56.674Z,11.40
2019-04-28T19:42:00.602Z,11.20
2019-04-28T19:47:04.523Z,11.20
2019-04-28T19:52:08.702Z,11.20
2019-04-28T19:57:25.509Z,11.20
2019-04-28T20:02:32.115Z,11.10
2019-04-28T20:07:35.838Z,11.00
2019-04-28T20:12:39.513Z,10.90
2019-04-28T20:17:43.265Z,10.90
2019-04-28T20:22:47.310Z,10.70
2019-04-28T20:27:51.041Z,10.70
2019-04-28T20:33:06.513Z,10.80
2019-04-28T20:38:05.325Z,10.70
2019-04-28T20:43:12.304Z,10.60
2019-04-28T20:48:15.993Z,10.50
2019-04-28T20:53:19.721Z,10.40
2019-04-28T20:58:23.645Z,10.50
2019-04-28T21:03:27.324Z,10.50
2019-04-28T21:08:31.161Z,10.50
2019-04-28T21:13:34.908Z,10.60
2019-04-28T21:18:38.663Z,10.50
2019-04-28T21:23:42.479Z,10.70
2019-04-28T21:28:46.230Z,11.00
2019-04-28T21:33:50.031Z,10.90
2019-04-28T21:38:53.789Z,11.10
2019-04-28T21:44:08.715Z,11.30
2019-04-28T21:49:24.716Z,11.20
2019-04-28T21:54:28.534Z,11.00
2019-04-28T21:59:32.235Z,10.60
2019-04-28T22:04:35.930Z,10.60
2019-04-28T22:09:39.847Z,10.40
2019-04-28T22:14:43.563Z,10.50
2019-04-28T22:19:47.245Z,10.50
2019-04-28T22:25:02.661Z,10.70
2019-04-28T22:30:07.562Z,10.50
2019-04-28T22:35:11.514Z,10.50
2019-04-28T22:40:15.368Z,10.20
2019-04-28T22:45:19.199Z,10.20
2019-04-28T22:50:41.814Z,10.10
2019-04-28T22:55:53.695Z,10.00
2019-04-28T23:01:05.745Z,10.00
2019-04-28T23:06:10.548Z,10.00
2019-04-28T23:11:14.418Z,10.20
2019-04-28T23:16:18.087Z,10.20
2019-04-28T23:21:52.754Z,10.30
2019-04-28T23:26:56.465Z,10.20
2019-04-28T23:32:00.518Z,10.20
2019-04-28T23:37:04.258Z,10.30
2019-04-28T23:42:28.717Z,10.30
2019-04-28T23:47:32.642Z,10.20
2019-04-28T23:52:54.861Z,10.10
2019-04-28T23:57:58.561Z,9.90
